sensor_id;sensor_type;location;lat;lon;timestamp;temperature;humidity
4840;DHT22;2434;48.486;7.964;2022-08-25T00:01:47;24.00;41.70
4840;DHT22;2434;48.486;7.964;2022-08-25T00:04:16;23.90;41.40
4840;DHT22;2434;48.486;7.964;2022-08-25T00:06:46;23.90;41.70
4840;DHT22;2434;48.486;7.964;2022-08-25T00:09:19;23.80;41.50
4840;DHT22;2434;48.486;7.964;2022-08-25T00:11:48;23.80;42.40
4840;DHT22;2434;48.486;7.964;2022-08-25T00:14:19;23.80;42.20
4840;DHT22;2434;48.486;7.964;2022-08-25T00:16:49;23.70;42.50
4840;DHT22;2434;48.486;7.964;2022-08-25T00:19:26;23.70;42.60
4840;DHT22;2434;48.486;7.964;2022-08-25T00:21:55;23.60;43.50
4840;DHT22;2434;48.486;7.964;2022-08-25T00:24:24;23.50;43.30
4840;DHT22;2434;48.486;7.964;2022-08-25T00:26:54;23.40;43.70
4840;DHT22;2434;48.486;7.964;2022-08-25T00:29:24;23.40;43.90
4840;DHT22;2434;48.486;7.964;2022-08-25T00:31:55;23.30;44.40
4840;DHT22;2434;48.486;7.964;2022-08-25T00:34:27;23.20;44.10
4840;DHT22;2434;48.486;7.964;2022-08-25T00:36:55;23.20;44.50
4840;DHT22;2434;48.486;7.964;2022-08-25T00:39:24;23.10;45.10
4840;DHT22;2434;48.486;7.964;2022-08-25T00:41:55;22.90;46.00
4840;DHT22;2434;48.486;7.964;2022-08-25T00:44:25;22.90;46.30
4840;DHT22;2434;48.486;7.964;2022-08-25T00:46:57;22.80;46.60
4840;DHT22;2434;48.486;7.964;2022-08-25T00:49:29;22.70;47.00
4840;DHT22;2434;48.486;7.964;2022-08-25T00:52:02;22.70;46.80
4840;DHT22;2434;48.486;7.964;2022-08-25T00:54:35;22.70;47.00
4840;DHT22;2434;48.486;7.964;2022-08-25T00:57:06;22.60;46.80
4840;DHT22;2434;48.486;7.964;2022-08-25T00:59:36;22.60;47.30
4840;DHT22;2434;48.486;7.964;2022-08-25T01:02:07;22.60;47.40
4840;DHT22;2434;48.486;7.964;2022-08-25T01:04:40;22.60;47.80
4840;DHT22;2434;48.486;7.964;2022-08-25T01:07:16;22.60;47.50
4840;DHT22;2434;48.486;7.964;2022-08-25T01:09:46;22.50;47.50
4840;DHT22;2434;48.486;7.964;2022-08-25T01:12:15;22.50;48.10
4840;DHT22;2434;48.486;7.964;2022-08-25T01:14:44;22.50;48.10
4840;DHT22;2434;48.486;7.964;2022-08-25T01:17:14;22.40;49.30
4840;DHT22;2434;48.486;7.964;2022-08-25T01:19:43;22.40;47.80
4840;DHT22;2434;48.486;7.964;2022-08-25T01:22:12;22.50;48.00
4840;DHT22;2434;48.486;7.964;2022-08-25T01:24:46;22.50;48.00
4840;DHT22;2434;48.486;7.964;2022-08-25T01:27:16;22.60;47.50
4840;DHT22;2434;48.486;7.964;2022-08-25T01:29:45;22.60;47.90
4840;DHT22;2434;48.486;7.964;2022-08-25T01:32:13;22.60;47.70
4840;DHT22;2434;48.486;7.964;2022-08-25T01:34:43;22.60;47.20
4840;DHT22;2434;48.486;7.964;2022-08-25T01:37:14;22.60;47.30
4840;DHT22;2434;48.486;7.964;2022-08-25T01:39:45;22.60;47.30
4840;DHT22;2434;48.486;7.964;2022-08-25T01:45:06;22.50;47.60
4840;DHT22;2434;48.486;7.964;2022-08-25T01:47:36;22.50;48.20
4840;DHT22;2434;48.486;7.964;2022-08-25T01:50:05;22.40;47.50
4840;DHT22;2434;48.486;7.964;2022-08-25T01:52:44;22.50;48.30
4840;DHT22;2434;48.486;7.964;2022-08-25T01:55:13;22.50;48.20
4840;DHT22;2434;48.486;7.964;2022-08-25T01:57:41;22.40;48.20
4840;DHT22;2434;48.486;7.964;2022-08-25T02:00:11;22.40;48.00
4840;DHT22;2434;48.486;7.964;2022-08-25T02:02:40;22.40;48.40
4840;DHT22;2434;48.486;7.964;2022-08-25T02:05:11;22.30;48.80
4840;DHT22;2434;48.486;7.964;2022-08-25T02:07:41;22.20;48.70
4840;DHT22;2434;48.486;7.964;2022-08-25T02:10:11;22.20;49.20
4840;DHT22;2434;48.486;7.964;2022-08-25T02:12:40;22.10;49.70
4840;DHT22;2434;48.486;7.964;2022-08-25T02:15:09;22.00;49.50
4840;DHT22;2434;48.486;7.964;2022-08-25T02:17:37;22.00;49.90
4840;DHT22;2434;48.486;7.964;2022-08-25T02:20:06;21.90;50.70
4840;DHT22;2434;48.486;7.964;2022-08-25T02:22:35;21.90;50.20
4840;DHT22;2434;48.486;7.964;2022-08-25T02:25:06;22.00;50.00
4840;DHT22;2434;48.486;7.964;2022-08-25T02:27:34;22.00;50.40
4840;DHT22;2434;48.486;7.964;2022-08-25T02:30:04;21.90;50.00
4840;DHT22;2434;48.486;7.964;2022-08-25T02:32:33;21.90;49.90
4840;DHT22;2434;48.486;7.964;2022-08-25T02:35:01;21.90;50.00
4840;DHT22;2434;48.486;7.964;2022-08-25T02:37:30;21.90;50.10
4840;DHT22;2434;48.486;7.964;2022-08-25T02:39:58;21.90;50.10
4840;DHT22;2434;48.486;7.964;2022-08-25T02:42:29;21.40;53.40
4840;DHT22;2434;48.486;7.964;2022-08-25T02:44:57;21.50;53.10
4840;DHT22;2434;48.486;7.964;2022-08-25T02:47:26;21.60;52.30
4840;DHT22;2434;48.486;7.964;2022-08-25T02:49:55;21.70;51.40
4840;DHT22;2434;48.486;7.964;2022-08-25T02:52:23;21.80;51.20
4840;DHT22;2434;48.486;7.964;2022-08-25T02:54:52;21.80;50.20
4840;DHT22;2434;48.486;7.964;2022-08-25T02:57:21;21.90;50.40
4840;DHT22;2434;48.486;7.964;2022-08-25T02:59:51;21.80;50.10
4840;DHT22;2434;48.486;7.964;2022-08-25T03:02:20;21.80;50.00
4840;DHT22;2434;48.486;7.964;2022-08-25T03:04:48;21.80;50.20
4840;DHT22;2434;48.486;7.964;2022-08-25T03:07:21;21.80;50.50
4840;DHT22;2434;48.486;7.964;2022-08-25T03:09:50;21.70;50.50
4840;DHT22;2434;48.486;7.964;2022-08-25T03:12:18;21.70;51.30
4840;DHT22;2434;48.486;7.964;2022-08-25T03:14:48;21.60;50.60
4840;DHT22;2434;48.486;7.964;2022-08-25T03:17:17;21.60;51.00
4840;DHT22;2434;48.486;7.964;2022-08-25T03:19:46;21.60;51.60
4840;DHT22;2434;48.486;7.964;2022-08-25T03:22:14;21.50;51.60
4840;DHT22;2434;48.486;7.964;2022-08-25T03:24:42;21.50;52.00
4840;DHT22;2434;48.486;7.964;2022-08-25T03:27:12;21.50;51.50
4840;DHT22;2434;48.486;7.964;2022-08-25T03:29:39;21.50;51.40
4840;DHT22;2434;48.486;7.964;2022-08-25T03:32:09;21.00;54.60
4840;DHT22;2434;48.486;7.964;2022-08-25T03:34:39;20.70;56.00
4840;DHT22;2434;48.486;7.964;2022-08-25T03:37:07;21.00;54.30
4840;DHT22;2434;48.486;7.964;2022-08-25T03:39:35;21.10;53.90
4840;DHT22;2434;48.486;7.964;2022-08-25T03:42:04;21.20;53.00
4840;DHT22;2434;48.486;7.964;2022-08-25T03:44:32;21.30;53.00
4840;DHT22;2434;48.486;7.964;2022-08-25T03:47:01;21.20;52.90
4840;DHT22;2434;48.486;7.964;2022-08-25T03:49:29;21.20;53.30
4840;DHT22;2434;48.486;7.964;2022-08-25T03:52:02;21.00;54.60
4840;DHT22;2434;48.486;7.964;2022-08-25T03:54:30;20.70;55.80
4840;DHT22;2434;48.486;7.964;2022-08-25T03:56:58;20.90;55.20
4840;DHT22;2434;48.486;7.964;2022-08-25T03:59:27;21.00;54.50
4840;DHT22;2434;48.486;7.964;2022-08-25T04:01:55;21.10;54.00
4840;DHT22;2434;48.486;7.964;2022-08-25T04:04:24;21.10;53.00
4840;DHT22;2434;48.486;7.964;2022-08-25T04:06:52;21.10;53.30
4840;DHT22;2434;48.486;7.964;2022-08-25T04:09:22;21.10;53.10
4840;DHT22;2434;48.486;7.964;2022-08-25T04:11:51;21.10;52.90
4840;DHT22;2434;48.486;7.964;2022-08-25T04:14:20;21.10;52.80
4840;DHT22;2434;48.486;7.964;2022-08-25T04:16:50;21.10;53.00
4840;DHT22;2434;48.486;7.964;2022-08-25T04:19:20;21.00;53.00
4840;DHT22;2434;48.486;7.964;2022-08-25T04:21:48;21.00;53.20
4840;DHT22;2434;48.486;7.964;2022-08-25T04:24:23;21.00;53.70
4840;DHT22;2434;48.486;7.964;2022-08-25T04:26:52;20.90;53.60
4840;DHT22;2434;48.486;7.964;2022-08-25T04:29:21;20.90;53.70
4840;DHT22;2434;48.486;7.964;2022-08-25T04:31:51;20.90;54.40
4840;DHT22;2434;48.486;7.964;2022-08-25T04:34:22;20.80;54.30
4840;DHT22;2434;48.486;7.964;2022-08-25T04:36:59;20.80;54.40
4840;DHT22;2434;48.486;7.964;2022-08-25T04:39:29;20.70;55.30
4840;DHT22;2434;48.486;7.964;2022-08-25T04:41:57;20.60;55.40
4840;DHT22;2434;48.486;7.964;2022-08-25T04:44:27;20.60;56.30
4840;DHT22;2434;48.486;7.964;2022-08-25T04:46:56;20.60;56.40
4840;DHT22;2434;48.486;7.964;2022-08-25T04:49:24;20.60;56.70
4840;DHT22;2434;48.486;7.964;2022-08-25T04:51:53;20.00;58.60
4840;DHT22;2434;48.486;7.964;2022-08-25T04:54:22;20.30;57.80
4840;DHT22;2434;48.486;7.964;2022-08-25T04:56:52;19.70;61.50
4840;DHT22;2434;48.486;7.964;2022-08-25T04:59:25;20.00;59.80
4840;DHT22;2434;48.486;7.964;2022-08-25T05:01:57;20.10;58.90
4840;DHT22;2434;48.486;7.964;2022-08-25T05:04:29;20.30;58.00
4840;DHT22;2434;48.486;7.964;2022-08-25T05:06:59;20.40;57.10
4840;DHT22;2434;48.486;7.964;2022-08-25T05:09:27;20.50;57.10
4840;DHT22;2434;48.486;7.964;2022-08-25T05:12:01;20.50;56.50
4840;DHT22;2434;48.486;7.964;2022-08-25T05:14:29;20.60;57.00
4840;DHT22;2434;48.486;7.964;2022-08-25T05:16:58;20.40;58.20
4840;DHT22;2434;48.486;7.964;2022-08-25T05:19:26;20.50;57.70
4840;DHT22;2434;48.486;7.964;2022-08-25T05:21:55;20.60;57.50
4840;DHT22;2434;48.486;7.964;2022-08-25T05:24:24;20.60;57.10
4840;DHT22;2434;48.486;7.964;2022-08-25T05:26:54;20.70;57.50
4840;DHT22;2434;48.486;7.964;2022-08-25T05:29:24;20.60;57.50
4840;DHT22;2434;48.486;7.964;2022-08-25T05:31:52;20.60;56.80
4840;DHT22;2434;48.486;7.964;2022-08-25T05:34:21;20.60;57.80
4840;DHT22;2434;48.486;7.964;2022-08-25T05:36:50;20.60;57.90
4840;DHT22;2434;48.486;7.964;2022-08-25T05:39:18;20.70;57.90
4840;DHT22;2434;48.486;7.964;2022-08-25T05:41:47;20.60;59.20
4840;DHT22;2434;48.486;7.964;2022-08-25T05:44:15;20.60;57.70
4840;DHT22;2434;48.486;7.964;2022-08-25T05:46:48;20.50;60.10
4840;DHT22;2434;48.486;7.964;2022-08-25T05:49:17;20.20;61.40
4840;DHT22;2434;48.486;7.964;2022-08-25T05:51:45;20.10;62.30
4840;DHT22;2434;48.486;7.964;2022-08-25T05:54:14;20.10;63.70
4840;DHT22;2434;48.486;7.964;2022-08-25T05:56:42;20.20;62.70
4840;DHT22;2434;48.486;7.964;2022-08-25T05:59:11;20.40;61.40
4840;DHT22;2434;48.486;7.964;2022-08-25T06:01:39;20.10;64.80
4840;DHT22;2434;48.486;7.964;2022-08-25T06:04:27;19.70;66.30
4840;DHT22;2434;48.486;7.964;2022-08-25T06:06:55;19.60;67.90
4840;DHT22;2434;48.486;7.964;2022-08-25T06:09:23;19.50;69.50
4840;DHT22;2434;48.486;7.964;2022-08-25T06:11:52;19.80;67.60
4840;DHT22;2434;48.486;7.964;2022-08-25T06:14:22;19.90;67.00
4840;DHT22;2434;48.486;7.964;2022-08-25T06:16:51;20.20;65.70
4840;DHT22;2434;48.486;7.964;2022-08-25T06:19:19;20.10;66.40
4840;DHT22;2434;48.486;7.964;2022-08-25T06:21:52;20.00;67.80
4840;DHT22;2434;48.486;7.964;2022-08-25T06:24:21;20.20;65.70
4840;DHT22;2434;48.486;7.964;2022-08-25T06:26:49;20.40;64.60
4840;DHT22;2434;48.486;7.964;2022-08-25T06:29:18;20.20;66.70
4840;DHT22;2434;48.486;7.964;2022-08-25T06:31:46;20.10;67.80
4840;DHT22;2434;48.486;7.964;2022-08-25T06:34:17;20.20;67.00
4840;DHT22;2434;48.486;7.964;2022-08-25T06:36:51;20.20;67.30
4840;DHT22;2434;48.486;7.964;2022-08-25T06:39:19;20.10;67.60
4840;DHT22;2434;48.486;7.964;2022-08-25T06:41:50;20.10;67.30
4840;DHT22;2434;48.486;7.964;2022-08-25T06:44:20;20.10;66.90
4840;DHT22;2434;48.486;7.964;2022-08-25T06:46:49;20.20;66.60
4840;DHT22;2434;48.486;7.964;2022-08-25T06:49:17;20.20;66.10
4840;DHT22;2434;48.486;7.964;2022-08-25T06:51:46;20.30;67.00
4840;DHT22;2434;48.486;7.964;2022-08-25T06:54:16;20.30;66.40
4840;DHT22;2434;48.486;7.964;2022-08-25T06:56:45;20.30;65.60
4840;DHT22;2434;48.486;7.964;2022-08-25T06:59:15;20.30;65.80
4840;DHT22;2434;48.486;7.964;2022-08-25T07:01:45;20.30;65.80
4840;DHT22;2434;48.486;7.964;2022-08-25T07:04:16;20.30;66.20
4840;DHT22;2434;48.486;7.964;2022-08-25T07:06:44;20.40;65.50
4840;DHT22;2434;48.486;7.964;2022-08-25T07:09:13;20.40;65.80
4840;DHT22;2434;48.486;7.964;2022-08-25T07:11:43;20.50;65.20
4840;DHT22;2434;48.486;7.964;2022-08-25T07:14:14;20.50;65.20
4840;DHT22;2434;48.486;7.964;2022-08-25T07:16:43;20.70;65.50
4840;DHT22;2434;48.486;7.964;2022-08-25T07:19:16;20.70;65.30
4840;DHT22;2434;48.486;7.964;2022-08-25T07:21:49;20.80;64.50
4840;DHT22;2434;48.486;7.964;2022-08-25T07:24:17;21.00;64.10
4840;DHT22;2434;48.486;7.964;2022-08-25T07:26:47;21.00;63.80
4840;DHT22;2434;48.486;7.964;2022-08-25T07:29:18;21.10;63.50
4840;DHT22;2434;48.486;7.964;2022-08-25T07:31:59;21.20;62.90
4840;DHT22;2434;48.486;7.964;2022-08-25T07:34:28;21.20;62.90
4840;DHT22;2434;48.486;7.964;2022-08-25T07:37:19;21.20;62.40
4840;DHT22;2434;48.486;7.964;2022-08-25T07:40:10;21.30;62.70
4840;DHT22;2434;48.486;7.964;2022-08-25T07:42:40;21.50;62.40
4840;DHT22;2434;48.486;7.964;2022-08-25T07:45:10;21.50;62.50
4840;DHT22;2434;48.486;7.964;2022-08-25T07:47:39;21.70;62.70
4840;DHT22;2434;48.486;7.964;2022-08-25T07:50:09;21.70;62.00
4840;DHT22;2434;48.486;7.964;2022-08-25T07:52:38;21.80;61.70
4840;DHT22;2434;48.486;7.964;2022-08-25T07:55:08;21.90;61.50
4840;DHT22;2434;48.486;7.964;2022-08-25T07:57:39;22.00;60.90
4840;DHT22;2434;48.486;7.964;2022-08-25T08:00:09;22.10;60.00
4840;DHT22;2434;48.486;7.964;2022-08-25T08:02:38;22.30;60.00
4840;DHT22;2434;48.486;7.964;2022-08-25T08:05:07;22.40;59.60
4840;DHT22;2434;48.486;7.964;2022-08-25T08:07:36;22.40;58.90
4840;DHT22;2434;48.486;7.964;2022-08-25T08:10:11;22.40;57.90
4840;DHT22;2434;48.486;7.964;2022-08-25T08:13:01;22.60;58.20
4840;DHT22;2434;48.486;7.964;2022-08-25T08:15:33;22.50;57.40
4840;DHT22;2434;48.486;7.964;2022-08-25T08:18:03;22.70;57.00
4840;DHT22;2434;48.486;7.964;2022-08-25T08:20:33;23.00;54.90
4840;DHT22;2434;48.486;7.964;2022-08-25T08:23:09;23.00;55.00
4840;DHT22;2434;48.486;7.964;2022-08-25T08:25:37;23.00;55.00
4840;DHT22;2434;48.486;7.964;2022-08-25T08:28:07;23.10;56.10
4840;DHT22;2434;48.486;7.964;2022-08-25T08:30:36;23.20;55.10
4840;DHT22;2434;48.486;7.964;2022-08-25T08:33:05;23.40;53.40
4840;DHT22;2434;48.486;7.964;2022-08-25T08:35:38;23.50;53.20
4840;DHT22;2434;48.486;7.964;2022-08-25T08:38:07;23.80;51.00
4840;DHT22;2434;48.486;7.964;2022-08-25T08:40:48;23.80;51.00
4840;DHT22;2434;48.486;7.964;2022-08-25T08:43:42;23.80;50.30
4840;DHT22;2434;48.486;7.964;2022-08-25T08:46:13;23.90;48.90
4840;DHT22;2434;48.486;7.964;2022-08-25T08:48:54;24.00;47.50
4840;DHT22;2434;48.486;7.964;2022-08-25T08:51:30;24.10;47.30
4840;DHT22;2434;48.486;7.964;2022-08-25T08:54:05;24.10;47.80
4840;DHT22;2434;48.486;7.964;2022-08-25T08:56:43;24.30;46.70
4840;DHT22;2434;48.486;7.964;2022-08-25T08:59:18;24.30;49.70
4840;DHT22;2434;48.486;7.964;2022-08-25T09:01:49;24.50;45.50
4840;DHT22;2434;48.486;7.964;2022-08-25T09:04:26;24.70;45.10
4840;DHT22;2434;48.486;7.964;2022-08-25T09:07:00;24.70;43.20
4840;DHT22;2434;48.486;7.964;2022-08-25T09:09:32;24.60;43.30
4840;DHT22;2434;48.486;7.964;2022-08-25T09:12:08;24.90;43.00
4840;DHT22;2434;48.486;7.964;2022-08-25T09:14:49;25.00;42.30
4840;DHT22;2434;48.486;7.964;2022-08-25T09:17:36;24.80;43.90
4840;DHT22;2434;48.486;7.964;2022-08-25T09:20:28;24.90;42.50
4840;DHT22;2434;48.486;7.964;2022-08-25T09:23:10;25.00;43.00
4840;DHT22;2434;48.486;7.964;2022-08-25T09:25:52;25.50;41.00
4840;DHT22;2434;48.486;7.964;2022-08-25T09:28:29;25.40;40.00
4840;DHT22;2434;48.486;7.964;2022-08-25T09:31:01;25.40;40.20
4840;DHT22;2434;48.486;7.964;2022-08-25T09:33:31;25.50;40.30
4840;DHT22;2434;48.486;7.964;2022-08-25T09:36:02;25.50;40.10
4840;DHT22;2434;48.486;7.964;2022-08-25T09:38:32;25.50;39.70
4840;DHT22;2434;48.486;7.964;2022-08-25T09:41:01;25.70;38.30
4840;DHT22;2434;48.486;7.964;2022-08-25T09:43:31;25.70;39.20
4840;DHT22;2434;48.486;7.964;2022-08-25T09:46:08;25.80;38.30
4840;DHT22;2434;48.486;7.964;2022-08-25T09:48:47;25.90;37.60
4840;DHT22;2434;48.486;7.964;2022-08-25T09:51:25;25.90;38.10
4840;DHT22;2434;48.486;7.964;2022-08-25T09:53:56;26.00;39.50
4840;DHT22;2434;48.486;7.964;2022-08-25T09:56:27;26.20;36.80
4840;DHT22;2434;48.486;7.964;2022-08-25T09:59:19;26.10;36.50
4840;DHT22;2434;48.486;7.964;2022-08-25T10:02:10;26.10;36.60
4840;DHT22;2434;48.486;7.964;2022-08-25T10:04:50;26.20;35.80
4840;DHT22;2434;48.486;7.964;2022-08-25T10:07:21;26.30;36.60
4840;DHT22;2434;48.486;7.964;2022-08-25T10:09:54;26.40;37.60
4840;DHT22;2434;48.486;7.964;2022-08-25T10:12:29;26.80;36.20
4840;DHT22;2434;48.486;7.964;2022-08-25T10:15:15;27.00;34.80
4840;DHT22;2434;48.486;7.964;2022-08-25T10:18:18;26.80;34.00
4840;DHT22;2434;48.486;7.964;2022-08-25T10:21:08;26.70;35.00
4840;DHT22;2434;48.486;7.964;2022-08-25T10:23:41;26.60;34.70
4840;DHT22;2434;48.486;7.964;2022-08-25T10:26:17;26.70;36.10
4840;DHT22;2434;48.486;7.964;2022-08-25T10:28:58;27.00;35.00
4840;DHT22;2434;48.486;7.964;2022-08-25T10:31:34;26.90;34.10
4840;DHT22;2434;48.486;7.964;2022-08-25T10:34:19;26.90;34.70
4840;DHT22;2434;48.486;7.964;2022-08-25T10:36:55;27.40;32.70
4840;DHT22;2434;48.486;7.964;2022-08-25T10:39:37;27.20;33.40
4840;DHT22;2434;48.486;7.964;2022-08-25T10:42:22;27.30;34.50
4840;DHT22;2434;48.486;7.964;2022-08-25T10:45:07;27.60;33.50
4840;DHT22;2434;48.486;7.964;2022-08-25T10:48:10;27.70;31.40
4840;DHT22;2434;48.486;7.964;2022-08-25T10:50:47;27.60;31.80
4840;DHT22;2434;48.486;7.964;2022-08-25T10:53:24;27.60;32.70
4840;DHT22;2434;48.486;7.964;2022-08-25T10:56:06;27.70;31.20
4840;DHT22;2434;48.486;7.964;2022-08-25T11:01:47;27.90;31.30
4840;DHT22;2434;48.486;7.964;2022-08-25T11:04:22;27.80;30.30
4840;DHT22;2434;48.486;7.964;2022-08-25T11:06:58;28.00;30.50
4840;DHT22;2434;48.486;7.964;2022-08-25T11:09:29;28.20;31.60
4840;DHT22;2434;48.486;7.964;2022-08-25T11:12:06;28.30;29.20
4840;DHT22;2434;48.486;7.964;2022-08-25T11:14:39;28.20;29.10
4840;DHT22;2434;48.486;7.964;2022-08-25T11:17:12;28.10;30.70
4840;DHT22;2434;48.486;7.964;2022-08-25T11:19:44;28.20;29.20
4840;DHT22;2434;48.486;7.964;2022-08-25T11:22:22;28.20;29.20
4840;DHT22;2434;48.486;7.964;2022-08-25T11:25:01;28.40;29.70
4840;DHT22;2434;48.486;7.964;2022-08-25T11:27:37;28.40;28.80
4840;DHT22;2434;48.486;7.964;2022-08-25T11:30:12;28.50;28.70
4840;DHT22;2434;48.486;7.964;2022-08-25T11:32:44;28.50;28.30
4840;DHT22;2434;48.486;7.964;2022-08-25T11:35:17;28.60;28.10
4840;DHT22;2434;48.486;7.964;2022-08-25T11:38:04;28.50;27.80
4840;DHT22;2434;48.486;7.964;2022-08-25T11:40:47;28.60;27.40
4840;DHT22;2434;48.486;7.964;2022-08-25T11:43:43;28.70;27.50
4840;DHT22;2434;48.486;7.964;2022-08-25T11:46:29;28.60;27.50
4840;DHT22;2434;48.486;7.964;2022-08-25T11:49:24;28.70;28.70
4840;DHT22;2434;48.486;7.964;2022-08-25T11:51:57;29.10;28.70
4840;DHT22;2434;48.486;7.964;2022-08-25T11:54:36;29.10;27.40
4840;DHT22;2434;48.486;7.964;2022-08-25T11:57:15;29.00;26.10
4840;DHT22;2434;48.486;7.964;2022-08-25T12:00:04;29.00;27.40
4840;DHT22;2434;48.486;7.964;2022-08-25T12:02:38;29.30;27.00
4840;DHT22;2434;48.486;7.964;2022-08-25T12:05:10;29.00;26.70
4840;DHT22;2434;48.486;7.964;2022-08-25T12:08:02;29.20;27.20
4840;DHT22;2434;48.486;7.964;2022-08-25T12:10:56;29.30;26.30
4840;DHT22;2434;48.486;7.964;2022-08-25T12:13:41;29.10;25.60
4840;DHT22;2434;48.486;7.964;2022-08-25T12:19:30;29.40;27.10
4840;DHT22;2434;48.486;7.964;2022-08-25T12:22:47;29.40;24.80
4840;DHT22;2434;48.486;7.964;2022-08-25T12:25:34;29.40;25.90
4840;DHT22;2434;48.486;7.964;2022-08-25T12:28:16;29.50;25.20
4840;DHT22;2434;48.486;7.964;2022-08-25T12:30:55;29.70;24.70
4840;DHT22;2434;48.486;7.964;2022-08-25T12:33:34;29.70;24.20
4840;DHT22;2434;48.486;7.964;2022-08-25T12:36:10;29.60;24.00
4840;DHT22;2434;48.486;7.964;2022-08-25T12:38:52;29.40;24.60
4840;DHT22;2434;48.486;7.964;2022-08-25T12:41:26;29.70;24.60
4840;DHT22;2434;48.486;7.964;2022-08-25T12:47:06;30.40;23.90
4840;DHT22;2434;48.486;7.964;2022-08-25T12:49:38;30.90;23.50
4840;DHT22;2434;48.486;7.964;2022-08-25T12:52:11;31.20;23.20
4840;DHT22;2434;48.486;7.964;2022-08-25T12:54:47;31.50;23.20
4840;DHT22;2434;48.486;7.964;2022-08-25T12:57:25;31.90;21.40
4840;DHT22;2434;48.486;7.964;2022-08-25T12:59:59;32.30;19.90
4840;DHT22;2434;48.486;7.964;2022-08-25T13:02:47;32.20;20.50
4840;DHT22;2434;48.486;7.964;2022-08-25T13:05:39;32.50;19.90
4840;DHT22;2434;48.486;7.964;2022-08-25T13:08:38;32.50;19.80
4840;DHT22;2434;48.486;7.964;2022-08-25T13:11:16;31.60;19.20
4840;DHT22;2434;48.486;7.964;2022-08-25T13:13:51;31.50;19.90
4840;DHT22;2434;48.486;7.964;2022-08-25T13:16:25;31.40;22.10
4840;DHT22;2434;48.486;7.964;2022-08-25T13:18:56;31.90;21.10
4840;DHT22;2434;48.486;7.964;2022-08-25T13:21:29;32.30;20.80
4840;DHT22;2434;48.486;7.964;2022-08-25T13:24:03;31.40;18.70
4840;DHT22;2434;48.486;7.964;2022-08-25T13:26:36;31.30;21.90
4840;DHT22;2434;48.486;7.964;2022-08-25T13:29:18;31.40;20.80
4840;DHT22;2434;48.486;7.964;2022-08-25T13:31:54;32.00;21.60
4840;DHT22;2434;48.486;7.964;2022-08-25T13:34:25;32.30;19.80
4840;DHT22;2434;48.486;7.964;2022-08-25T13:37:05;32.70;18.60
4840;DHT22;2434;48.486;7.964;2022-08-25T13:40:08;33.00;18.80
4840;DHT22;2434;48.486;7.964;2022-08-25T13:42:37;33.10;16.90
4840;DHT22;2434;48.486;7.964;2022-08-25T13:45:14;32.20;17.20
4840;DHT22;2434;48.486;7.964;2022-08-25T13:47:45;31.30;18.60
4840;DHT22;2434;48.486;7.964;2022-08-25T13:50:30;30.80;19.20
4840;DHT22;2434;48.486;7.964;2022-08-25T13:53:04;30.60;19.80
4840;DHT22;2434;48.486;7.964;2022-08-25T13:55:39;30.50;20.20
4840;DHT22;2434;48.486;7.964;2022-08-25T13:58:20;30.70;19.90
4840;DHT22;2434;48.486;7.964;2022-08-25T14:01:05;30.80;20.30
4840;DHT22;2434;48.486;7.964;2022-08-25T14:04:18;31.20;20.10
4840;DHT22;2434;48.486;7.964;2022-08-25T14:06:47;31.20;19.40
4840;DHT22;2434;48.486;7.964;2022-08-25T14:09:17;31.00;20.00
4840;DHT22;2434;48.486;7.964;2022-08-25T14:11:56;30.90;19.90
4840;DHT22;2434;48.486;7.964;2022-08-25T14:14:33;30.90;19.70
4840;DHT22;2434;48.486;7.964;2022-08-25T14:17:05;30.80;19.20
4840;DHT22;2434;48.486;7.964;2022-08-25T14:19:56;30.80;19.90
4840;DHT22;2434;48.486;7.964;2022-08-25T14:22:24;30.70;19.20
4840;DHT22;2434;48.486;7.964;2022-08-25T14:24:54;30.70;19.80
4840;DHT22;2434;48.486;7.964;2022-08-25T14:27:22;30.90;19.40
4840;DHT22;2434;48.486;7.964;2022-08-25T14:29:51;31.10;20.30
4840;DHT22;2434;48.486;7.964;2022-08-25T14:32:19;30.90;19.30
4840;DHT22;2434;48.486;7.964;2022-08-25T14:34:47;30.80;19.60
4840;DHT22;2434;48.486;7.964;2022-08-25T14:37:18;30.90;19.90
4840;DHT22;2434;48.486;7.964;2022-08-25T14:39:51;31.00;20.80
4840;DHT22;2434;48.486;7.964;2022-08-25T14:42:21;31.00;19.80
4840;DHT22;2434;48.486;7.964;2022-08-25T14:44:52;31.10;19.50
4840;DHT22;2434;48.486;7.964;2022-08-25T14:47:22;31.00;19.50
4840;DHT22;2434;48.486;7.964;2022-08-25T14:49:50;31.00;19.20
4840;DHT22;2434;48.486;7.964;2022-08-25T14:52:22;31.00;19.70
4840;DHT22;2434;48.486;7.964;2022-08-25T14:54:52;31.00;19.50
4840;DHT22;2434;48.486;7.964;2022-08-25T14:57:23;31.20;20.20
4840;DHT22;2434;48.486;7.964;2022-08-25T14:59:52;31.60;19.90
4840;DHT22;2434;48.486;7.964;2022-08-25T15:02:21;31.70;18.20
4840;DHT22;2434;48.486;7.964;2022-08-25T15:04:58;31.50;19.60
4840;DHT22;2434;48.486;7.964;2022-08-25T15:07:31;31.60;20.30
4840;DHT22;2434;48.486;7.964;2022-08-25T15:10:17;31.60;19.90
4840;DHT22;2434;48.486;7.964;2022-08-25T15:12:47;31.50;20.00
4840;DHT22;2434;48.486;7.964;2022-08-25T15:15:19;31.50;19.20
4840;DHT22;2434;48.486;7.964;2022-08-25T15:17:48;31.60;19.70
4840;DHT22;2434;48.486;7.964;2022-08-25T15:20:17;31.40;20.40
4840;DHT22;2434;48.486;7.964;2022-08-25T15:22:46;31.20;19.50
4840;DHT22;2434;48.486;7.964;2022-08-25T15:25:16;31.00;20.10
4840;DHT22;2434;48.486;7.964;2022-08-25T15:27:44;31.00;20.10
4840;DHT22;2434;48.486;7.964;2022-08-25T15:30:13;31.00;20.50
4840;DHT22;2434;48.486;7.964;2022-08-25T15:32:42;31.00;20.30
4840;DHT22;2434;48.486;7.964;2022-08-25T15:35:14;31.00;20.00
4840;DHT22;2434;48.486;7.964;2022-08-25T15:37:43;31.10;20.30
4840;DHT22;2434;48.486;7.964;2022-08-25T15:40:15;31.10;20.60
4840;DHT22;2434;48.486;7.964;2022-08-25T15:42:43;31.50;20.00
4840;DHT22;2434;48.486;7.964;2022-08-25T15:45:12;31.30;19.30
4840;DHT22;2434;48.486;7.964;2022-08-25T15:47:41;31.30;19.50
4840;DHT22;2434;48.486;7.964;2022-08-25T15:50:12;31.10;19.70
4840;DHT22;2434;48.486;7.964;2022-08-25T15:52:42;31.10;20.10
4840;DHT22;2434;48.486;7.964;2022-08-25T15:55:16;31.20;20.00
4840;DHT22;2434;48.486;7.964;2022-08-25T15:57:45;31.20;19.80
4840;DHT22;2434;48.486;7.964;2022-08-25T16:00:16;31.20;19.90
4840;DHT22;2434;48.486;7.964;2022-08-25T16:02:47;31.00;19.20
4840;DHT22;2434;48.486;7.964;2022-08-25T16:05:15;30.90;19.10
4840;DHT22;2434;48.486;7.964;2022-08-25T16:07:51;30.90;19.20
4840;DHT22;2434;48.486;7.964;2022-08-25T16:10:21;30.90;18.90
4840;DHT22;2434;48.486;7.964;2022-08-25T16:12:50;30.90;20.00
4840;DHT22;2434;48.486;7.964;2022-08-25T16:15:19;31.10;20.00
4840;DHT22;2434;48.486;7.964;2022-08-25T16:17:54;30.90;19.80
4840;DHT22;2434;48.486;7.964;2022-08-25T16:20:23;30.90;19.70
4840;DHT22;2434;48.486;7.964;2022-08-25T16:22:51;30.80;20.10
4840;DHT22;2434;48.486;7.964;2022-08-25T16:25:22;30.80;20.10
4840;DHT22;2434;48.486;7.964;2022-08-25T16:27:50;30.90;20.60
4840;DHT22;2434;48.486;7.964;2022-08-25T16:30:19;30.90;20.40
4840;DHT22;2434;48.486;7.964;2022-08-25T16:32:48;30.80;19.90
4840;DHT22;2434;48.486;7.964;2022-08-25T16:35:16;30.80;20.30
4840;DHT22;2434;48.486;7.964;2022-08-25T16:37:44;30.80;20.80
4840;DHT22;2434;48.486;7.964;2022-08-25T16:40:14;30.70;20.50
4840;DHT22;2434;48.486;7.964;2022-08-25T16:42:47;30.70;20.80
4840;DHT22;2434;48.486;7.964;2022-08-25T16:45:15;30.70;20.80
4840;DHT22;2434;48.486;7.964;2022-08-25T16:47:44;30.80;20.90
4840;DHT22;2434;48.486;7.964;2022-08-25T16:50:14;30.80;20.10
4840;DHT22;2434;48.486;7.964;2022-08-25T16:52:42;30.70;20.30